Powder Springs, GA (30127)

3:56 AM EST on November 23, 2014 (GMT -0500)
Powder Springs, GA | Change Station
CLOSE
Current Station
Personal Weather Station
Location: Powder Springs, GA
Elevation: 985 ft
Nearby Weather Stations

Elev 985 ft 33.89 °N, 84.67 °W | Updated 4 seconds ago

Rain
Rain
46.0 °F
Feels Like 46 °F
N
0.0
Wind Variable Wind from East
Gusts 2.0 mph

Today
High -- | Low -- °F
--% Chance of Precip.
Yesterday
High -- | Low -- °F
Precip. -- in
7:18 AM 5:31 PM
New Moon, 1% visible
Pressure 30.12 in
Visibility 10.0 miles
Clouds Overcast 1400 ft
Windchill 46 °F
Dew Point 43 °F
Humidity 88%
Rainfall 0.02 in
Snow Depth Not available.
UV 0 out of 12
Pollen 1.40 out of 12
Air Quality Not available.
Flu Activity Not available.
SPECI KMGE 230850Z AUTO 09007KT 10SM -RA OVC014 08/05 A3012 RMK AO2 RAB0810DZB0759E0810 $

More Conditions Fewer Conditions

Pressure 30.12 in
Visibility 10.0 miles
Clouds Overcast 1400 ft
Windchill 46 °F
Dew Point 43 °F
Humidity 88%
Rainfall 0.02 in
Snow Depth Not available.
UV 0 out of 12
Pollen 1.40 out of 12
Air Quality Not available.
Flu Activity Not available.
SPECI KMGE 230850Z AUTO 09007KT 10SM -RA OVC014 08/05 A3012 RMK AO2 RAB0810DZB0759E0810 $

More Conditions Fewer Conditions

10-Day Weather Forecast

Almanac

Astronomy

Nov. 23, 2014 Rise Set
Actual Time
Civil Twilight
Nautical Twilight
Astronomical Twilight
Moon
Length of Visible Light
Length of Day
Tomorrow will be .
, % of the Moon is Illuminated

Today's Extremes

State Highs State Lows

Community

WunderPhotos

Upload Photos

1,773,024 photos uploaded!

WunderBlogs® & News

Nearby

Air Quality

  Air Quality AQ Index Pollutant
Not available.

Snow Depth

Station Depth Elevation

Earthquake Activity

City Distance Mag. Time & Date
Minimum magnitude displayed is 2.5.

Coastal Water Temperatures

Place Temperature

Nearby Weather Stations